sensor_id;sensor_type;location;lat;lon;timestamp;P1;durP1;ratioP1;P2;durP2;ratioP2
23418;SDS011;11882;42.522;27.458;2024-02-15T00:01:35;1.27;;;0.63;;
23418;SDS011;11882;42.522;27.458;2024-02-15T00:04:02;0.80;;;0.80;;
23418;SDS011;11882;42.522;27.458;2024-02-15T00:06:31;0.70;;;0.70;;
23418;SDS011;11882;42.522;27.458;2024-02-15T00:08:58;0.80;;;0.70;;
23418;SDS011;11882;42.522;27.458;2024-02-15T00:11:25;0.53;;;0.53;;
23418;SDS011;11882;42.522;27.458;2024-02-15T00:13:52;0.50;;;0.50;;
23418;SDS011;11882;42.522;27.458;2024-02-15T00:16:23;0.60;;;0.60;;
23418;SDS011;11882;42.522;27.458;2024-02-15T00:18:50;0.63;;;0.50;;
23418;SDS011;11882;42.522;27.458;2024-02-15T00:21:17;1.60;;;0.80;;
23418;SDS011;11882;42.522;27.458;2024-02-15T00:23:45;1.07;;;0.60;;
23418;SDS011;11882;42.522;27.458;2024-02-15T00:26:12;0.37;;;0.37;;
23418;SDS011;11882;42.522;27.458;2024-02-15T00:28:40;0.30;;;0.30;;
23418;SDS011;11882;42.522;27.458;2024-02-15T00:31:08;1.40;;;0.37;;
23418;SDS011;11882;42.522;27.458;2024-02-15T00:33:37;0.50;;;0.50;;
23418;SDS011;11882;42.522;27.458;2024-02-15T00:36:04;1.60;;;0.70;;
23418;SDS011;11882;42.522;27.458;2024-02-15T00:38:32;0.50;;;0.50;;
23418;SDS011;11882;42.522;27.458;2024-02-15T00:41:00;0.40;;;0.40;;
23418;SDS011;11882;42.522;27.458;2024-02-15T00:43:27;0.30;;;0.30;;
23418;SDS011;11882;42.522;27.458;2024-02-15T00:45:54;0.40;;;0.40;;
23418;SDS011;11882;42.522;27.458;2024-02-15T00:48:22;0.30;;;0.30;;
23418;SDS011;11882;42.522;27.458;2024-02-15T00:50:53;0.53;;;0.50;;
23418;SDS011;11882;42.522;27.458;2024-02-15T00:53:20;0.50;;;0.43;;
23418;SDS011;11882;42.522;27.458;2024-02-15T00:55:47;0.20;;;0.20;;
23418;SDS011;11882;42.522;27.458;2024-02-15T00:58:14;0.43;;;0.43;;
23418;SDS011;11882;42.522;27.458;2024-02-15T01:00:42;1.53;;;0.70;;
23418;SDS011;11882;42.522;27.458;2024-02-15T01:03:09;0.53;;;0.20;;
23418;SDS011;11882;42.522;27.458;2024-02-15T01:05:36;1.00;;;0.60;;
23418;SDS011;11882;42.522;27.458;2024-02-15T01:08:05;0.47;;;0.43;;
23418;SDS011;11882;42.522;27.458;2024-02-15T01:10:34;0.53;;;0.53;;
23418;SDS011;11882;42.522;27.458;2024-02-15T01:13:02;0.97;;;0.77;;
23418;SDS011;11882;42.522;27.458;2024-02-15T01:15:29;1.83;;;0.80;;
23418;SDS011;11882;42.522;27.458;2024-02-15T01:17:56;0.40;;;0.40;;
23418;SDS011;11882;42.522;27.458;2024-02-15T01:20:23;0.67;;;0.60;;
23418;SDS011;11882;42.522;27.458;2024-02-15T01:22:50;0.40;;;0.40;;
23418;SDS011;11882;42.522;27.458;2024-02-15T01:25:19;0.63;;;0.50;;
23418;SDS011;11882;42.522;27.458;2024-02-15T01:27:46;0.57;;;0.40;;
23418;SDS011;11882;42.522;27.458;2024-02-15T01:30:14;1.53;;;0.70;;
23418;SDS011;11882;42.522;27.458;2024-02-15T01:32:41;0.67;;;0.50;;
23418;SDS011;11882;42.522;27.458;2024-02-15T01:35:08;0.23;;;0.23;;
23418;SDS011;11882;42.522;27.458;2024-02-15T01:37:36;0.90;;;0.70;;
23418;SDS011;11882;42.522;27.458;2024-02-15T01:40:04;0.53;;;0.50;;
23418;SDS011;11882;42.522;27.458;2024-02-15T01:42:34;1.10;;;0.67;;
23418;SDS011;11882;42.522;27.458;2024-02-15T01:45:01;0.53;;;0.53;;
23418;SDS011;11882;42.522;27.458;2024-02-15T01:47:29;0.63;;;0.63;;
23418;SDS011;11882;42.522;27.458;2024-02-15T01:49:57;1.27;;;1.00;;
23418;SDS011;11882;42.522;27.458;2024-02-15T01:52:24;0.60;;;0.60;;
23418;SDS011;11882;42.522;27.458;2024-02-15T01:54:52;0.60;;;0.57;;
23418;SDS011;11882;42.522;27.458;2024-02-15T01:57:20;1.07;;;0.97;;
23418;SDS011;11882;42.522;27.458;2024-02-15T01:59:51;0.70;;;0.53;;
23418;SDS011;11882;42.522;27.458;2024-02-15T02:02:18;1.97;;;1.10;;
23418;SDS011;11882;42.522;27.458;2024-02-15T02:04:49;0.93;;;0.60;;
23418;SDS011;11882;42.522;27.458;2024-02-15T02:07:17;0.70;;;0.70;;
23418;SDS011;11882;42.522;27.458;2024-02-15T02:09:45;0.90;;;0.60;;
23418;SDS011;11882;42.522;27.458;2024-02-15T02:12:14;0.97;;;0.83;;
23418;SDS011;11882;42.522;27.458;2024-02-15T02:14:43;0.77;;;0.63;;
23418;SDS011;11882;42.522;27.458;2024-02-15T02:17:12;0.63;;;0.50;;
23418;SDS011;11882;42.522;27.458;2024-02-15T02:19:40;4.90;;;0.67;;
23418;SDS011;11882;42.522;27.458;2024-02-15T02:22:08;0.67;;;0.60;;
23418;SDS011;11882;42.522;27.458;2024-02-15T02:24:40;0.83;;;0.67;;
23418;SDS011;11882;42.522;27.458;2024-02-15T02:27:13;1.27;;;1.00;;
23418;SDS011;11882;42.522;27.458;2024-02-15T02:29:42;2.73;;;0.90;;
23418;SDS011;11882;42.522;27.458;2024-02-15T02:32:11;1.10;;;0.83;;
23418;SDS011;11882;42.522;27.458;2024-02-15T02:34:38;0.80;;;0.63;;
23418;SDS011;11882;42.522;27.458;2024-02-15T02:37:06;0.70;;;0.47;;
23418;SDS011;11882;42.522;27.458;2024-02-15T02:39:34;0.73;;;0.73;;
23418;SDS011;11882;42.522;27.458;2024-02-15T02:42:01;1.37;;;0.93;;
23418;SDS011;11882;42.522;27.458;2024-02-15T02:44:29;1.10;;;0.63;;
23418;SDS011;11882;42.522;27.458;2024-02-15T02:46:57;0.60;;;0.50;;
23418;SDS011;11882;42.522;27.458;2024-02-15T02:49:24;0.57;;;0.57;;
23418;SDS011;11882;42.522;27.458;2024-02-15T02:51:51;1.23;;;1.13;;
23418;SDS011;11882;42.522;27.458;2024-02-15T02:54:18;1.20;;;1.10;;
23418;SDS011;11882;42.522;27.458;2024-02-15T02:56:46;0.70;;;0.67;;
23418;SDS011;11882;42.522;27.458;2024-02-15T02:59:13;1.07;;;0.97;;
23418;SDS011;11882;42.522;27.458;2024-02-15T03:01:43;1.20;;;0.77;;
23418;SDS011;11882;42.522;27.458;2024-02-15T03:04:10;1.07;;;0.90;;
23418;SDS011;11882;42.522;27.458;2024-02-15T03:06:42;1.07;;;0.60;;
23418;SDS011;11882;42.522;27.458;2024-02-15T03:09:09;0.90;;;0.80;;
23418;SDS011;11882;42.522;27.458;2024-02-15T03:11:39;0.60;;;0.60;;
23418;SDS011;11882;42.522;27.458;2024-02-15T03:14:07;1.57;;;1.17;;
23418;SDS011;11882;42.522;27.458;2024-02-15T03:16:34;1.73;;;1.23;;
23418;SDS011;11882;42.522;27.458;2024-02-15T03:19:03;2.53;;;0.70;;
23418;SDS011;11882;42.522;27.458;2024-02-15T03:21:30;1.10;;;0.70;;
23418;SDS011;11882;42.522;27.458;2024-02-15T03:23:57;1.43;;;0.83;;
23418;SDS011;11882;42.522;27.458;2024-02-15T03:26:29;0.93;;;0.87;;
23418;SDS011;11882;42.522;27.458;2024-02-15T03:28:59;1.03;;;0.83;;
23418;SDS011;11882;42.522;27.458;2024-02-15T03:31:28;1.00;;;0.93;;
23418;SDS011;11882;42.522;27.458;2024-02-15T03:33:56;1.23;;;1.00;;
23418;SDS011;11882;42.522;27.458;2024-02-15T03:36:25;1.00;;;0.90;;
23418;SDS011;11882;42.522;27.458;2024-02-15T03:38:54;1.27;;;1.17;;
23418;SDS011;11882;42.522;27.458;2024-02-15T03:41:23;0.90;;;0.77;;
23418;SDS011;11882;42.522;27.458;2024-02-15T03:43:53;1.23;;;1.13;;
23418;SDS011;11882;42.522;27.458;2024-02-15T03:46:20;0.87;;;0.80;;
23418;SDS011;11882;42.522;27.458;2024-02-15T03:48:49;1.07;;;1.07;;
23418;SDS011;11882;42.522;27.458;2024-02-15T03:51:16;0.63;;;0.63;;
23418;SDS011;11882;42.522;27.458;2024-02-15T03:53:45;1.47;;;0.97;;
23418;SDS011;11882;42.522;27.458;2024-02-15T03:56:13;0.80;;;0.80;;
23418;SDS011;11882;42.522;27.458;2024-02-15T03:58:58;0.67;;;0.67;;
23418;SDS011;11882;42.522;27.458;2024-02-15T04:01:29;1.20;;;0.87;;
23418;SDS011;11882;42.522;27.458;2024-02-15T04:03:59;1.10;;;1.00;;
23418;SDS011;11882;42.522;27.458;2024-02-15T04:06:27;1.20;;;1.10;;
23418;SDS011;11882;42.522;27.458;2024-02-15T04:08:57;1.30;;;0.90;;
23418;SDS011;11882;42.522;27.458;2024-02-15T04:11:24;1.67;;;0.93;;
23418;SDS011;11882;42.522;27.458;2024-02-15T04:13:52;0.60;;;0.60;;
23418;SDS011;11882;42.522;27.458;2024-02-15T04:16:19;0.80;;;0.80;;
23418;SDS011;11882;42.522;27.458;2024-02-15T04:18:46;1.23;;;0.90;;
23418;SDS011;11882;42.522;27.458;2024-02-15T04:21:13;0.80;;;0.80;;
23418;SDS011;11882;42.522;27.458;2024-02-15T04:23:45;1.17;;;0.97;;
23418;SDS011;11882;42.522;27.458;2024-02-15T04:26:13;1.60;;;0.50;;
23418;SDS011;11882;42.522;27.458;2024-02-15T04:28:41;1.20;;;0.90;;
23418;SDS011;11882;42.522;27.458;2024-02-15T04:31:08;1.23;;;0.90;;
23418;SDS011;11882;42.522;27.458;2024-02-15T04:33:37;2.37;;;0.90;;
23418;SDS011;11882;42.522;27.458;2024-02-15T04:36:05;1.10;;;0.80;;
23418;SDS011;11882;42.522;27.458;2024-02-15T04:38:33;1.53;;;0.87;;
23418;SDS011;11882;42.522;27.458;2024-02-15T04:41:00;1.67;;;1.20;;
23418;SDS011;11882;42.522;27.458;2024-02-15T04:43:30;0.77;;;0.73;;
23418;SDS011;11882;42.522;27.458;2024-02-15T04:45:58;0.63;;;0.53;;
23418;SDS011;11882;42.522;27.458;2024-02-15T04:48:25;1.60;;;1.20;;
23418;SDS011;11882;42.522;27.458;2024-02-15T04:50:53;0.40;;;0.40;;
23418;SDS011;11882;42.522;27.458;2024-02-15T04:53:24;6.93;;;1.17;;
23418;SDS011;11882;42.522;27.458;2024-02-15T04:55:51;2.00;;;0.87;;
23418;SDS011;11882;42.522;27.458;2024-02-15T04:58:20;1.63;;;0.97;;
23418;SDS011;11882;42.522;27.458;2024-02-15T05:00:49;1.30;;;1.07;;
23418;SDS011;11882;42.522;27.458;2024-02-15T05:03:18;1.37;;;0.83;;
23418;SDS011;11882;42.522;27.458;2024-02-15T05:05:45;0.80;;;0.80;;
23418;SDS011;11882;42.522;27.458;2024-02-15T05:08:13;0.37;;;0.37;;
23418;SDS011;11882;42.522;27.458;2024-02-15T05:10:40;1.60;;;1.10;;
23418;SDS011;11882;42.522;27.458;2024-02-15T05:13:07;2.03;;;1.20;;
23418;SDS011;11882;42.522;27.458;2024-02-15T05:15:39;2.57;;;1.47;;
23418;SDS011;11882;42.522;27.458;2024-02-15T05:18:08;2.13;;;1.20;;
23418;SDS011;11882;42.522;27.458;2024-02-15T05:20:35;2.27;;;1.30;;
23418;SDS011;11882;42.522;27.458;2024-02-15T05:23:03;1.10;;;0.80;;
23418;SDS011;11882;42.522;27.458;2024-02-15T05:25:31;3.47;;;1.17;;
23418;SDS011;11882;42.522;27.458;2024-02-15T05:27:58;2.10;;;1.37;;
23418;SDS011;11882;42.522;27.458;2024-02-15T05:30:25;0.87;;;0.83;;
23418;SDS011;11882;42.522;27.458;2024-02-15T05:32:52;3.27;;;2.30;;
23418;SDS011;11882;42.522;27.458;2024-02-15T05:35:21;2.27;;;1.47;;
23418;SDS011;11882;42.522;27.458;2024-02-15T05:37:49;1.33;;;0.87;;
23418;SDS011;11882;42.522;27.458;2024-02-15T05:40:17;1.90;;;1.23;;
23418;SDS011;11882;42.522;27.458;2024-02-15T05:42:44;1.80;;;1.27;;
23418;SDS011;11882;42.522;27.458;2024-02-15T05:45:27;8.60;;;1.23;;
23418;SDS011;11882;42.522;27.458;2024-02-15T05:48:05;0.80;;;0.80;;
23418;SDS011;11882;42.522;27.458;2024-02-15T05:50:39;3.80;;;1.43;;
23418;SDS011;11882;42.522;27.458;2024-02-15T05:53:06;1.97;;;1.40;;
23418;SDS011;11882;42.522;27.458;2024-02-15T05:55:34;0.67;;;0.60;;
23418;SDS011;11882;42.522;27.458;2024-02-15T05:58:03;2.77;;;1.40;;
23418;SDS011;11882;42.522;27.458;2024-02-15T06:00:30;2.70;;;1.57;;
23418;SDS011;11882;42.522;27.458;2024-02-15T06:02:59;0.60;;;0.60;;
23418;SDS011;11882;42.522;27.458;2024-02-15T06:05:28;0.90;;;0.90;;
23418;SDS011;11882;42.522;27.458;2024-02-15T06:07:57;3.23;;;1.87;;
23418;SDS011;11882;42.522;27.458;2024-02-15T06:10:24;1.37;;;1.27;;
23418;SDS011;11882;42.522;27.458;2024-02-15T06:12:51;1.67;;;1.43;;
23418;SDS011;11882;42.522;27.458;2024-02-15T06:15:20;1.50;;;1.30;;
23418;SDS011;11882;42.522;27.458;2024-02-15T06:17:48;1.57;;;1.03;;
23418;SDS011;11882;42.522;27.458;2024-02-15T06:20:16;1.33;;;0.90;;
23418;SDS011;11882;42.522;27.458;2024-02-15T06:22:45;1.40;;;0.97;;
23418;SDS011;11882;42.522;27.458;2024-02-15T06:25:14;2.00;;;1.23;;
23418;SDS011;11882;42.522;27.458;2024-02-15T06:27:45;1.23;;;0.87;;
23418;SDS011;11882;42.522;27.458;2024-02-15T06:30:14;1.20;;;1.10;;
23418;SDS011;11882;42.522;27.458;2024-02-15T06:32:58;3.13;;;1.63;;
23418;SDS011;11882;42.522;27.458;2024-02-15T06:35:43;0.77;;;0.63;;
23418;SDS011;11882;42.522;27.458;2024-02-15T06:38:27;1.23;;;0.87;;
23418;SDS011;11882;42.522;27.458;2024-02-15T06:41:13;1.40;;;1.27;;
23418;SDS011;11882;42.522;27.458;2024-02-15T06:43:41;0.70;;;0.70;;
23418;SDS011;11882;42.522;27.458;2024-02-15T06:46:08;2.03;;;0.77;;
23418;SDS011;11882;42.522;27.458;2024-02-15T06:48:36;3.23;;;1.33;;
23418;SDS011;11882;42.522;27.458;2024-02-15T06:51:03;1.50;;;1.03;;
23418;SDS011;11882;42.522;27.458;2024-02-15T06:53:33;2.23;;;0.90;;
23418;SDS011;11882;42.522;27.458;2024-02-15T06:56:00;2.27;;;1.13;;
23418;SDS011;11882;42.522;27.458;2024-02-15T06:58:29;1.07;;;0.50;;
23418;SDS011;11882;42.522;27.458;2024-02-15T07:00:56;1.17;;;0.80;;
23418;SDS011;11882;42.522;27.458;2024-02-15T07:03:23;2.10;;;1.47;;
23418;SDS011;11882;42.522;27.458;2024-02-15T07:05:51;0.90;;;0.90;;
23418;SDS011;11882;42.522;27.458;2024-02-15T07:08:18;1.20;;;1.10;;
23418;SDS011;11882;42.522;27.458;2024-02-15T07:10:45;1.90;;;1.30;;
23418;SDS011;11882;42.522;27.458;2024-02-15T07:13:12;1.03;;;0.80;;
23418;SDS011;11882;42.522;27.458;2024-02-15T07:15:41;1.33;;;1.07;;
23418;SDS011;11882;42.522;27.458;2024-02-15T07:18:09;1.97;;;1.30;;
23418;SDS011;11882;42.522;27.458;2024-02-15T07:20:38;1.43;;;1.20;;
23418;SDS011;11882;42.522;27.458;2024-02-15T07:23:06;2.47;;;1.27;;
23418;SDS011;11882;42.522;27.458;2024-02-15T07:25:33;0.87;;;0.87;;
23418;SDS011;11882;42.522;27.458;2024-02-15T07:28:04;0.97;;;0.80;;
23418;SDS011;11882;42.522;27.458;2024-02-15T07:30:33;1.20;;;0.97;;
23418;SDS011;11882;42.522;27.458;2024-02-15T07:33:03;1.13;;;0.97;;
23418;SDS011;11882;42.522;27.458;2024-02-15T07:35:31;2.00;;;1.07;;
23418;SDS011;11882;42.522;27.458;2024-02-15T07:38:00;1.27;;;1.17;;
23418;SDS011;11882;42.522;27.458;2024-02-15T07:40:27;1.27;;;1.07;;
23418;SDS011;11882;42.522;27.458;2024-02-15T07:42:56;1.13;;;1.03;;
23418;SDS011;11882;42.522;27.458;2024-02-15T07:45:23;0.93;;;0.87;;
23418;SDS011;11882;42.522;27.458;2024-02-15T07:47:50;1.50;;;0.77;;
23418;SDS011;11882;42.522;27.458;2024-02-15T07:50:20;2.77;;;1.60;;
23418;SDS011;11882;42.522;27.458;2024-02-15T07:52:48;1.10;;;1.00;;
23418;SDS011;11882;42.522;27.458;2024-02-15T07:55:16;4.40;;;1.70;;
23418;SDS011;11882;42.522;27.458;2024-02-15T07:57:43;1.27;;;1.00;;
23418;SDS011;11882;42.522;27.458;2024-02-15T08:00:12;2.17;;;1.23;;
23418;SDS011;11882;42.522;27.458;2024-02-15T08:02:41;1.93;;;1.50;;
23418;SDS011;11882;42.522;27.458;2024-02-15T08:05:09;2.47;;;1.43;;
23418;SDS011;11882;42.522;27.458;2024-02-15T08:07:40;1.27;;;1.00;;
23418;SDS011;11882;42.522;27.458;2024-02-15T08:10:09;4.00;;;2.00;;
23418;SDS011;11882;42.522;27.458;2024-02-15T08:12:42;1.47;;;1.13;;
23418;SDS011;11882;42.522;27.458;2024-02-15T08:15:09;1.27;;;1.13;;
23418;SDS011;11882;42.522;27.458;2024-02-15T08:17:38;2.80;;;1.20;;
23418;SDS011;11882;42.522;27.458;2024-02-15T08:20:07;0.90;;;0.90;;
23418;SDS011;11882;42.522;27.458;2024-02-15T08:22:35;2.47;;;1.37;;
23418;SDS011;11882;42.522;27.458;2024-02-15T08:25:06;2.00;;;1.37;;
23418;SDS011;11882;42.522;27.458;2024-02-15T08:27:36;1.37;;;1.27;;
23418;SDS011;11882;42.522;27.458;2024-02-15T08:30:08;1.40;;;1.07;;
23418;SDS011;11882;42.522;27.458;2024-02-15T08:32:36;1.17;;;1.07;;
23418;SDS011;11882;42.522;27.458;2024-02-15T08:35:05;1.37;;;1.27;;
23418;SDS011;11882;42.522;27.458;2024-02-15T08:37:33;0.63;;;0.63;;
23418;SDS011;11882;42.522;27.458;2024-02-15T08:40:00;1.30;;;1.17;;
23418;SDS011;11882;42.522;27.458;2024-02-15T08:42:29;1.97;;;1.43;;
23418;SDS011;11882;42.522;27.458;2024-02-15T08:44:57;1.10;;;1.03;;
23418;SDS011;11882;42.522;27.458;2024-02-15T08:47:25;1.17;;;1.07;;
23418;SDS011;11882;42.522;27.458;2024-02-15T08:49:52;1.50;;;1.40;;
23418;SDS011;11882;42.522;27.458;2024-02-15T08:52:19;2.70;;;1.37;;
23418;SDS011;11882;42.522;27.458;2024-02-15T08:54:46;1.43;;;1.30;;
23418;SDS011;11882;42.522;27.458;2024-02-15T08:57:14;1.40;;;1.20;;
23418;SDS011;11882;42.522;27.458;2024-02-15T08:59:42;1.20;;;1.10;;
23418;SDS011;11882;42.522;27.458;2024-02-15T09:02:10;1.27;;;1.17;;
23418;SDS011;11882;42.522;27.458;2024-02-15T09:04:37;1.90;;;1.30;;
23418;SDS011;11882;42.522;27.458;2024-02-15T09:07:06;2.67;;;1.67;;
23418;SDS011;11882;42.522;27.458;2024-02-15T09:09:34;0.90;;;0.90;;
23418;SDS011;11882;42.522;27.458;2024-02-15T09:12:02;1.30;;;1.07;;
23418;SDS011;11882;42.522;27.458;2024-02-15T09:14:31;1.53;;;1.23;;
23418;SDS011;11882;42.522;27.458;2024-02-15T09:17:00;1.17;;;1.07;;
23418;SDS011;11882;42.522;27.458;2024-02-15T09:19:32;2.77;;;1.40;;
23418;SDS011;11882;42.522;27.458;2024-02-15T09:22:00;0.93;;;0.80;;
23418;SDS011;11882;42.522;27.458;2024-02-15T09:24:29;1.27;;;1.17;;
23418;SDS011;11882;42.522;27.458;2024-02-15T09:26:58;1.60;;;1.27;;
23418;SDS011;11882;42.522;27.458;2024-02-15T09:29:26;1.57;;;1.23;;
23418;SDS011;11882;42.522;27.458;2024-02-15T09:31:55;2.03;;;1.23;;
23418;SDS011;11882;42.522;27.458;2024-02-15T09:34:24;2.63;;;1.67;;
23418;SDS011;11882;42.522;27.458;2024-02-15T09:36:51;2.87;;;1.77;;
23418;SDS011;11882;42.522;27.458;2024-02-15T09:39:18;2.43;;;1.50;;
23418;SDS011;11882;42.522;27.458;2024-02-15T09:41:45;1.67;;;1.30;;
23418;SDS011;11882;42.522;27.458;2024-02-15T09:44:19;1.93;;;1.50;;
23418;SDS011;11882;42.522;27.458;2024-02-15T09:46:46;1.30;;;1.10;;
23418;SDS011;11882;42.522;27.458;2024-02-15T09:49:20;2.50;;;1.67;;
23418;SDS011;11882;42.522;27.458;2024-02-15T09:51:49;1.27;;;0.90;;
23418;SDS011;11882;42.522;27.458;2024-02-15T09:54:16;1.70;;;1.03;;
23418;SDS011;11882;42.522;27.458;2024-02-15T09:56:47;2.70;;;1.30;;
23418;SDS011;11882;42.522;27.458;2024-02-15T09:59:16;2.60;;;1.23;;
23418;SDS011;11882;42.522;27.458;2024-02-15T10:01:43;2.13;;;1.60;;
23418;SDS011;11882;42.522;27.458;2024-02-15T10:04:13;1.73;;;1.53;;
23418;SDS011;11882;42.522;27.458;2024-02-15T10:06:41;1.70;;;1.60;;
23418;SDS011;11882;42.522;27.458;2024-02-15T10:09:26;1.37;;;1.20;;
23418;SDS011;11882;42.522;27.458;2024-02-15T10:11:54;2.20;;;1.47;;
23418;SDS011;11882;42.522;27.458;2024-02-15T10:14:22;1.33;;;1.23;;
23418;SDS011;11882;42.522;27.458;2024-02-15T10:16:51;2.03;;;1.70;;
23418;SDS011;11882;42.522;27.458;2024-02-15T10:19:19;2.23;;;1.50;;
23418;SDS011;11882;42.522;27.458;2024-02-15T10:21:51;2.43;;;1.30;;
23418;SDS011;11882;42.522;27.458;2024-02-15T10:24:21;1.50;;;1.40;;
23418;SDS011;11882;42.522;27.458;2024-02-15T10:26:51;1.23;;;1.13;;
23418;SDS011;11882;42.522;27.458;2024-02-15T10:29:19;1.50;;;1.20;;
23418;SDS011;11882;42.522;27.458;2024-02-15T10:31:53;1.37;;;1.23;;
23418;SDS011;11882;42.522;27.458;2024-02-15T10:34:43;2.37;;;2.03;;
23418;SDS011;11882;42.522;27.458;2024-02-15T10:37:11;2.23;;;1.37;;
23418;SDS011;11882;42.522;27.458;2024-02-15T10:39:39;3.57;;;1.77;;
23418;SDS011;11882;42.522;27.458;2024-02-15T10:42:08;3.33;;;1.67;;
23418;SDS011;11882;42.522;27.458;2024-02-15T10:44:37;2.83;;;1.73;;
23418;SDS011;11882;42.522;27.458;2024-02-15T10:47:06;2.57;;;2.33;;
23418;SDS011;11882;42.522;27.458;2024-02-15T10:49:34;5.67;;;1.83;;
23418;SDS011;11882;42.522;27.458;2024-02-15T10:52:03;2.83;;;1.90;;
23418;SDS011;11882;42.522;27.458;2024-02-15T10:54:41;4.27;;;2.20;;
23418;SDS011;11882;42.522;27.458;2024-02-15T10:57:14;1.50;;;1.40;;
23418;SDS011;11882;42.522;27.458;2024-02-15T10:59:50;2.97;;;1.67;;
23418;SDS011;11882;42.522;27.458;2024-02-15T11:02:28;2.90;;;2.10;;
23418;SDS011;11882;42.522;27.458;2024-02-15T11:04:59;3.37;;;1.90;;
23418;SDS011;11882;42.522;27.458;2024-02-15T11:07:30;4.57;;;2.13;;
23418;SDS011;11882;42.522;27.458;2024-02-15T11:09:58;2.07;;;1.63;;
23418;SDS011;11882;42.522;27.458;2024-02-15T11:12:28;3.20;;;2.00;;
23418;SDS011;11882;42.522;27.458;2024-02-15T11:14:56;2.33;;;2.13;;
23418;SDS011;11882;42.522;27.458;2024-02-15T11:23:27;2.33;;;1.83;;
23418;SDS011;11882;42.522;27.458;2024-02-15T11:25:55;3.60;;;2.37;;
23418;SDS011;11882;42.522;27.458;2024-02-15T11:40:19;1.63;;;1.53;;
23418;SDS011;11882;42.522;27.458;2024-02-15T11:42:48;3.77;;;2.47;;
23418;SDS011;11882;42.522;27.458;2024-02-15T11:45:17;2.27;;;2.03;;
23418;SDS011;11882;42.522;27.458;2024-02-15T11:47:47;5.67;;;2.80;;
23418;SDS011;11882;42.522;27.458;2024-02-15T11:50:15;8.57;;;2.53;;
23418;SDS011;11882;42.522;27.458;2024-02-15T11:52:44;3.43;;;2.37;;
23418;SDS011;11882;42.522;27.458;2024-02-15T11:55:14;3.37;;;2.30;;
23418;SDS011;11882;42.522;27.458;2024-02-15T11:57:53;5.10;;;3.03;;
23418;SDS011;11882;42.522;27.458;2024-02-15T12:00:29;3.30;;;2.43;;
23418;SDS011;11882;42.522;27.458;2024-02-15T12:03:14;3.83;;;2.40;;
23418;SDS011;11882;42.522;27.458;2024-02-15T12:05:59;2.87;;;2.30;;
23418;SDS011;11882;42.522;27.458;2024-02-15T12:08:44;5.03;;;2.57;;
23418;SDS011;11882;42.522;27.458;2024-02-15T12:11:29;4.03;;;3.03;;
23418;SDS011;11882;42.522;27.458;2024-02-15T12:17:37;2.80;;;1.90;;
23418;SDS011;11882;42.522;27.458;2024-02-15T12:20:21;4.47;;;3.00;;
23418;SDS011;11882;42.522;27.458;2024-02-15T12:22:51;4.37;;;3.10;;
23418;SDS011;11882;42.522;27.458;2024-02-15T12:25:19;3.70;;;2.50;;
23418;SDS011;11882;42.522;27.458;2024-02-15T12:27:52;2.27;;;2.07;;
23418;SDS011;11882;42.522;27.458;2024-02-15T12:30:20;2.67;;;2.30;;
23418;SDS011;11882;42.522;27.458;2024-02-15T12:32:49;3.33;;;2.70;;
23418;SDS011;11882;42.522;27.458;2024-02-15T12:35:17;3.60;;;2.80;;
23418;SDS011;11882;42.522;27.458;2024-02-15T12:37:47;3.20;;;2.37;;
23418;SDS011;11882;42.522;27.458;2024-02-15T12:40:17;2.13;;;1.93;;
23418;SDS011;11882;42.522;27.458;2024-02-15T12:42:45;2.67;;;2.30;;
23418;SDS011;11882;42.522;27.458;2024-02-15T12:45:16;3.47;;;2.70;;
23418;SDS011;11882;42.522;27.458;2024-02-15T12:47:46;2.80;;;2.17;;
23418;SDS011;11882;42.522;27.458;2024-02-15T12:50:16;4.70;;;3.27;;
23418;SDS011;11882;42.522;27.458;2024-02-15T12:52:45;4.47;;;2.67;;
23418;SDS011;11882;42.522;27.458;2024-02-15T12:55:14;3.30;;;2.60;;
23418;SDS011;11882;42.522;27.458;2024-02-15T12:57:43;2.53;;;2.33;;
23418;SDS011;11882;42.522;27.458;2024-02-15T13:00:13;4.30;;;2.57;;
23418;SDS011;11882;42.522;27.458;2024-02-15T13:02:44;5.70;;;2.97;;
23418;SDS011;11882;42.522;27.458;2024-02-15T13:05:14;3.17;;;2.50;;
23418;SDS011;11882;42.522;27.458;2024-02-15T13:07:45;3.43;;;2.60;;
23418;SDS011;11882;42.522;27.458;2024-02-15T13:10:12;4.50;;;2.50;;
23418;SDS011;11882;42.522;27.458;2024-02-15T13:12:41;4.80;;;2.77;;
23418;SDS011;11882;42.522;27.458;2024-02-15T13:15:10;5.03;;;2.87;;
23418;SDS011;11882;42.522;27.458;2024-02-15T13:17:40;2.97;;;2.60;;
23418;SDS011;11882;42.522;27.458;2024-02-15T13:20:10;3.60;;;2.53;;
23418;SDS011;11882;42.522;27.458;2024-02-15T13:22:41;4.63;;;3.00;;
23418;SDS011;11882;42.522;27.458;2024-02-15T13:25:10;7.80;;;4.57;;
23418;SDS011;11882;42.522;27.458;2024-02-15T13:27:37;5.80;;;4.47;;
23418;SDS011;11882;42.522;27.458;2024-02-15T13:30:05;4.40;;;3.33;;
23418;SDS011;11882;42.522;27.458;2024-02-15T13:32:35;3.07;;;2.77;;
23418;SDS011;11882;42.522;27.458;2024-02-15T13:35:03;3.43;;;2.47;;
23418;SDS011;11882;42.522;27.458;2024-02-15T13:37:40;2.70;;;2.23;;
23418;SDS011;11882;42.522;27.458;2024-02-15T13:40:09;3.03;;;2.53;;
23418;SDS011;11882;42.522;27.458;2024-02-15T13:42:40;3.33;;;2.13;;
23418;SDS011;11882;42.522;27.458;2024-02-15T13:45:14;2.57;;;2.23;;
23418;SDS011;11882;42.522;27.458;2024-02-15T13:47:43;2.90;;;2.00;;
23418;SDS011;11882;42.522;27.458;2024-02-15T13:50:12;4.67;;;2.80;;
23418;SDS011;11882;42.522;27.458;2024-02-15T13:52:42;4.67;;;3.00;;
23418;SDS011;11882;42.522;27.458;2024-02-15T13:55:11;2.93;;;2.33;;
23418;SDS011;11882;42.522;27.458;2024-02-15T13:57:41;3.87;;;2.70;;
23418;SDS011;11882;42.522;27.458;2024-02-15T14:00:10;2.70;;;2.43;;
23418;SDS011;11882;42.522;27.458;2024-02-15T14:02:46;2.37;;;2.10;;
23418;SDS011;11882;42.522;27.458;2024-02-15T14:05:14;2.70;;;2.07;;
23418;SDS011;11882;42.522;27.458;2024-02-15T14:07:47;5.40;;;2.67;;
23418;SDS011;11882;42.522;27.458;2024-02-15T14:10:15;5.00;;;2.53;;
23418;SDS011;11882;42.522;27.458;2024-02-15T14:12:46;2.30;;;2.03;;
23418;SDS011;11882;42.522;27.458;2024-02-15T14:15:14;3.60;;;2.67;;
23418;SDS011;11882;42.522;27.458;2024-02-15T14:17:42;4.53;;;3.07;;
23418;SDS011;11882;42.522;27.458;2024-02-15T14:20:11;4.13;;;3.13;;
23418;SDS011;11882;42.522;27.458;2024-02-15T14:22:39;2.70;;;2.13;;
23418;SDS011;11882;42.522;27.458;2024-02-15T14:25:08;3.43;;;2.43;;
23418;SDS011;11882;42.522;27.458;2024-02-15T14:27:37;3.10;;;2.40;;
23418;SDS011;11882;42.522;27.458;2024-02-15T14:30:05;2.57;;;2.20;;
23418;SDS011;11882;42.522;27.458;2024-02-15T14:32:50;2.70;;;2.27;;
23418;SDS011;11882;42.522;27.458;2024-02-15T14:35:30;2.40;;;2.20;;
23418;SDS011;11882;42.522;27.458;2024-02-15T14:38:00;2.93;;;2.63;;
23418;SDS011;11882;42.522;27.458;2024-02-15T14:40:32;4.33;;;2.50;;
23418;SDS011;11882;42.522;27.458;2024-02-15T14:43:00;3.33;;;2.37;;
23418;SDS011;11882;42.522;27.458;2024-02-15T14:45:29;2.37;;;2.17;;
23418;SDS011;11882;42.522;27.458;2024-02-15T14:47:57;2.53;;;2.20;;
23418;SDS011;11882;42.522;27.458;2024-02-15T14:50:24;3.70;;;2.30;;
23418;SDS011;11882;42.522;27.458;2024-02-15T14:52:51;4.07;;;2.83;;
23418;SDS011;11882;42.522;27.458;2024-02-15T14:55:19;3.67;;;2.57;;
23418;SDS011;11882;42.522;27.458;2024-02-15T14:57:49;4.73;;;3.40;;
23418;SDS011;11882;42.522;27.458;2024-02-15T15:00:16;3.47;;;2.70;;
23418;SDS011;11882;42.522;27.458;2024-02-15T15:02:46;3.43;;;2.50;;
23418;SDS011;11882;42.522;27.458;2024-02-15T15:05:13;3.07;;;2.60;;
23418;SDS011;11882;42.522;27.458;2024-02-15T15:08:04;3.23;;;2.47;;